SCAR METAR and TAF weather

Enter ICAO airport designator
Station Type Date Time Source
SCAR METAR 2021/03/05 20:00 UTC NOAA

SCAR 052000Z 21011KT CAVOK 25/17 Q1009


Station Type Date Time Source
SCAR Decoded METAR 2021/03/05 20:00 UTC NOAA

Arica, Chile (SCAR) 18-20S 070-20W 58M
Mar 05, 2021 - 03:00 PM EST / 2021.03.05 2000 UTC
Wind: from the SSW (210 degrees) at 13 MPH (11 KT):0
Visibility: greater than 7 mile(s):0
Temperature: 77 F (25 C)
Dew Point: 62 F (17 C)
Relative Humidity: 61%
Pressure (altimeter): 29.80 in. Hg (1009 hPa)
ob: SCAR 052000Z 21011KT CAVOK 25/17 Q1009
cycle: 20

Station Type Date Time Source
SCAR TAF 2021/03/05 18:07 UTC NOAA

TAF SCAR 051621Z 0518/0618 22012KT CAVOK TX26/0518Z TN21/0609Z
BECMG 0523/0601 18004KT
BECMG 0614/0616 22011KT

Example: see airport list